Time;durP1;ratioP1;P1;durP2;ratioP2;P2;SDS_P1;SDS_P2;PMS_P1;PMS_P2;Temp;Humidity;BMP_temperature;BMP_pressure;BME280_temperature;BME280_humidity;BME280_pressure;Samples;Min_cycle;Max_cycle;Signal;HPM_P1;HPM_P2
2021/08/20 00:01:41;;;;;;;0.60;0.60;;;11.40;99.90;;;;;;5013697;28;20234;-71
2021/08/20 00:04:07;;;;;;;0.60;0.60;;;11.30;99.90;;;;;;5025467;28;20261;-71
2021/08/20 00:06:36;;;;;;;0.50;0.50;;;11.30;99.90;;;;;;5017443;28;20210;-70
2021/08/20 00:09:02;;;;;;;0.60;0.60;;;11.30;99.90;;;;;;5035264;28;20289;-70
2021/08/20 00:11:27;;;;;;;0.52;0.52;;;11.20;99.90;;;;;;5026508;28;20371;-70
2021/08/20 00:13:53;;;;;;;0.57;0.57;;;11.10;99.90;;;;;;5016065;28;20285;-71
2021/08/20 00:16:19;;;;;;;0.50;0.50;;;11.10;99.90;;;;;;5033547;28;20297;-72
2021/08/20 00:18:45;;;;;;;0.50;0.50;;;11.00;99.90;;;;;;5017160;28;20653;-70
2021/08/20 00:21:11;;;;;;;0.50;0.50;;;10.90;99.90;;;;;;5017125;28;20202;-70
2021/08/20 00:23:37;;;;;;;0.60;0.60;;;11.00;99.90;;;;;;5017766;28;20522;-70
2021/08/20 00:26:03;;;;;;;2.25;1.35;;;10.90;99.90;;;;;;5016788;28;20206;-70
2021/08/20 00:28:29;;;;;;;0.60;0.60;;;10.90;99.90;;;;;;5033535;28;20557;-70
2021/08/20 00:30:55;;;;;;;0.50;0.50;;;10.80;99.90;;;;;;5036258;28;20336;-70
2021/08/20 00:33:21;;;;;;;0.50;0.50;;;10.70;99.90;;;;;;5016646;28;20340;-71
2021/08/20 00:35:46;;;;;;;0.60;0.60;;;10.60;99.90;;;;;;5015642;28;20214;-70
2021/08/20 00:38:12;;;;;;;0.77;0.77;;;10.50;99.90;;;;;;5026137;28;20211;-70
2021/08/20 00:40:39;;;;;;;0.60;0.60;;;10.40;99.90;;;;;;5014830;28;20202;-71
2021/08/20 00:43:07;;;;;;;0.52;0.52;;;10.30;99.90;;;;;;5016187;28;20199;-70
2021/08/20 00:45:33;;;;;;;0.57;0.57;;;10.30;99.90;;;;;;5049060;28;20203;-70
2021/08/20 00:47:59;;;;;;;0.70;0.70;;;10.30;99.90;;;;;;5034610;28;20202;-70
2021/08/20 00:50:25;;;;;;;0.60;0.60;;;10.30;99.90;;;;;;5035320;28;20281;-69
2021/08/20 00:52:51;;;;;;;0.60;0.60;;;10.20;99.90;;;;;;5035655;28;20302;-70
2021/08/20 00:55:19;;;;;;;0.52;0.52;;;10.10;99.90;;;;;;5033127;28;20276;-70
2021/08/20 00:57:48;;;;;;;0.60;0.60;;;10.00;99.90;;;;;;5015220;28;20251;-70
2021/08/20 01:00:16;;;;;;;0.60;0.60;;;9.90;99.90;;;;;;5016727;28;20198;-70
2021/08/20 01:02:41;;;;;;;0.70;0.70;;;9.90;99.90;;;;;;5029885;28;20207;-70
2021/08/20 01:05:09;;;;;;;0.60;0.60;;;9.90;99.90;;;;;;5017714;28;20631;-70
2021/08/20 01:07:37;;;;;;;0.60;0.60;;;9.90;99.90;;;;;;5015683;28;20221;-70
2021/08/20 01:10:05;;;;;;;0.65;0.65;;;9.90;99.90;;;;;;5015968;28;20206;-70
2021/08/20 01:12:31;;;;;;;0.60;0.60;;;9.80;99.90;;;;;;5014813;28;20303;-70
2021/08/20 01:14:57;;;;;;;0.70;0.70;;;9.70;99.90;;;;;;5013627;28;20183;-70
2021/08/20 01:17:23;;;;;;;0.60;0.60;;;9.70;99.90;;;;;;5016367;28;20202;-70
2021/08/20 01:19:48;;;;;;;0.60;0.60;;;9.70;99.90;;;;;;5033744;28;20225;-71
2021/08/20 01:22:14;;;;;;;0.60;0.60;;;9.70;99.90;;;;;;5032567;28;20611;-71
2021/08/20 01:24:44;;;;;;;0.60;0.60;;;9.70;99.90;;;;;;5014609;28;20224;-70
2021/08/20 01:27:10;;;;;;;0.52;0.52;;;9.80;99.90;;;;;;5039462;28;20340;-70
2021/08/20 01:29:36;;;;;;;0.60;0.60;;;9.80;99.90;;;;;;5054069;23;20301;-81
2021/08/20 01:32:02;;;;;;;0.60;0.60;;;9.80;99.90;;;;;;5034984;28;20208;-80
2021/08/20 01:34:28;;;;;;;0.60;0.60;;;9.90;99.90;;;;;;5033142;28;20206;-81
2021/08/20 01:36:53;;;;;;;0.60;0.60;;;9.90;99.90;;;;;;5036292;28;20737;-80
2021/08/20 01:39:19;;;;;;;0.70;0.70;;;9.90;99.90;;;;;;5034507;28;20221;-80
2021/08/20 01:41:45;;;;;;;0.60;0.60;;;10.00;99.90;;;;;;5035230;28;20197;-81
2021/08/20 01:44:11;;;;;;;0.55;0.55;;;10.00;99.90;;;;;;5035810;28;20239;-80
2021/08/20 01:46:36;;;;;;;0.60;0.60;;;10.00;99.90;;;;;;5034159;28;20233;-80
2021/08/20 01:49:03;;;;;;;0.60;0.60;;;10.10;99.90;;;;;;5033485;28;20210;-80
2021/08/20 01:51:31;;;;;;;0.60;0.60;;;10.10;99.90;;;;;;5033495;28;20201;-80
2021/08/20 01:53:59;;;;;;;0.80;0.80;;;10.10;99.90;;;;;;5034106;28;20205;-80
2021/08/20 01:56:35;;;;;;;0.70;0.70;;;10.10;99.90;;;;;;5035441;28;20300;-81
2021/08/20 01:59:02;;;;;;;0.60;0.60;;;10.10;99.90;;;;;;5034035;28;20209;-81
2021/08/20 02:01:30;;;;;;;0.65;0.65;;;10.10;99.90;;;;;;5031818;28;20280;-81
2021/08/20 02:03:55;;;;;;;0.60;0.60;;;10.00;99.90;;;;;;5032905;28;20289;-82
2021/08/20 02:06:21;;;;;;;1.45;0.82;;;9.90;99.90;;;;;;5052184;28;20290;-83
2021/08/20 02:08:47;;;;;;;0.73;0.73;;;9.90;99.90;;;;;;5053713;28;20190;-81
2021/08/20 02:11:13;;;;;;;0.60;0.60;;;9.90;99.90;;;;;;5052406;28;20205;-80
2021/08/20 02:13:39;;;;;;;0.60;0.60;;;9.90;99.90;;;;;;5034917;28;20725;-82
2021/08/20 02:16:06;;;;;;;0.60;0.60;;;10.00;99.90;;;;;;5052184;28;20577;-81
2021/08/20 02:18:33;;;;;;;0.60;0.60;;;10.00;99.90;;;;;;5033549;28;20209;-82
2021/08/20 02:20:59;;;;;;;0.60;0.60;;;9.90;99.90;;;;;;5035374;28;20201;-82
2021/08/20 02:23:25;;;;;;;0.70;0.70;;;9.90;99.90;;;;;;5033824;28;20197;-82
2021/08/20 02:25:50;;;;;;;0.60;0.60;;;9.90;99.90;;;;;;5052973;28;20205;-82
2021/08/20 02:28:16;;;;;;;1.38;1.00;;;9.90;99.90;;;;;;5033622;28;20627;-82
2021/08/20 02:30:42;;;;;;;0.60;0.60;;;9.90;99.90;;;;;;5033478;28;20222;-82
2021/08/20 02:33:07;;;;;;;0.60;0.60;;;10.00;99.90;;;;;;5034796;28;20201;-82
2021/08/20 02:35:33;;;;;;;0.80;0.80;;;10.00;99.90;;;;;;5034227;28;20213;-82
2021/08/20 02:37:59;;;;;;;0.60;0.60;;;9.90;99.90;;;;;;5034928;28;20205;-82
2021/08/20 02:40:25;;;;;;;0.60;0.60;;;10.00;99.90;;;;;;5033616;28;20206;-82
2021/08/20 02:42:52;;;;;;;0.60;0.60;;;10.00;99.90;;;;;;5034723;28;20563;-82
2021/08/20 02:45:18;;;;;;;0.60;0.60;;;10.00;99.90;;;;;;5033429;28;20201;-82
2021/08/20 02:47:43;;;;;;;0.70;0.70;;;9.90;99.90;;;;;;5034643;28;20656;-81
2021/08/20 02:50:10;;;;;;;0.50;0.50;;;9.90;99.90;;;;;;5032645;28;20205;-82
2021/08/20 02:52:35;;;;;;;0.60;0.60;;;9.90;99.90;;;;;;5033321;28;20209;-82
2021/08/20 02:55:01;;;;;;;0.63;0.63;;;9.90;99.90;;;;;;5035181;28;20669;-82
2021/08/20 02:57:29;;;;;;;0.80;0.80;;;9.90;99.90;;;;;;5033302;28;20210;-81
2021/08/20 02:59:56;;;;;;;0.60;0.60;;;9.90;99.90;;;;;;5034744;28;20201;-84
2021/08/20 03:02:22;;;;;;;0.70;0.70;;;9.80;99.90;;;;;;5032119;28;20208;-82
2021/08/20 03:04:48;;;;;;;0.65;0.65;;;9.80;99.90;;;;;;5033018;28;20205;-82
2021/08/20 03:07:14;;;;;;;0.60;0.60;;;9.80;99.90;;;;;;5051573;28;20280;-82
2021/08/20 03:09:40;;;;;;;0.60;0.60;;;9.80;99.90;;;;;;5033248;28;20198;-81
2021/08/20 03:12:07;;;;;;;1.42;1.33;;;9.80;99.90;;;;;;5034486;28;20250;-81
2021/08/20 03:14:33;;;;;;;0.60;0.60;;;9.80;99.90;;;;;;5034368;28;20232;-82
2021/08/20 03:16:59;;;;;;;0.60;0.60;;;9.80;99.90;;;;;;5033416;28;20200;-81
2021/08/20 03:19:25;;;;;;;0.65;0.65;;;9.80;99.90;;;;;;5033191;28;20217;-82
2021/08/20 03:21:50;;;;;;;0.60;0.60;;;9.80;99.90;;;;;;5033373;28;20281;-82
2021/08/20 03:24:16;;;;;;;0.70;0.70;;;9.80;99.90;;;;;;5052449;28;20193;-81
2021/08/20 03:26:42;;;;;;;0.60;0.60;;;9.70;99.90;;;;;;5033337;28;20201;-82
2021/08/20 03:29:08;;;;;;;0.60;0.60;;;9.70;99.90;;;;;;5032893;28;20316;-81
2021/08/20 03:31:33;;;;;;;0.60;0.60;;;9.70;99.90;;;;;;5051987;28;20288;-84
2021/08/20 03:33:59;;;;;;;0.80;0.80;;;9.60;99.90;;;;;;5052089;28;20427;-81
2021/08/20 03:36:26;;;;;;;0.60;0.60;;;9.60;99.90;;;;;;5033721;28;20202;-82
2021/08/20 03:38:52;;;;;;;0.70;0.70;;;9.50;99.90;;;;;;5033204;28;20209;-81
2021/08/20 03:41:19;;;;;;;0.70;0.70;;;9.40;99.90;;;;;;5052144;28;20193;-81
2021/08/20 03:43:45;;;;;;;0.60;0.60;;;9.40;99.90;;;;;;5033176;28;20205;-82
2021/08/20 03:46:12;;;;;;;0.70;0.70;;;9.40;99.90;;;;;;5033014;28;20198;-82
2021/08/20 03:48:38;;;;;;;0.60;0.60;;;9.40;99.90;;;;;;5033426;28;20209;-81
2021/08/20 03:51:04;;;;;;;0.60;0.60;;;9.40;99.90;;;;;;5018167;28;20206;-82
2021/08/20 03:53:30;;;;;;;0.60;0.60;;;9.30;99.90;;;;;;5031868;28;20205;-81
2021/08/20 03:55:56;;;;;;;0.60;0.60;;;9.30;99.90;;;;;;5048524;28;20263;-81
2021/08/20 03:58:22;;;;;;;0.70;0.70;;;9.30;99.90;;;;;;5033951;28;20298;-82
2021/08/20 04:00:53;;;;;;;0.60;0.60;;;9.20;99.90;;;;;;5032630;28;20604;-82
2021/08/20 04:03:20;;;;;;;0.60;0.60;;;9.20;99.90;;;;;;5050372;28;20205;-82
2021/08/20 04:05:47;;;;;;;0.60;0.60;;;9.10;99.90;;;;;;5051855;28;20259;-82
2021/08/20 04:08:14;;;;;;;0.70;0.70;;;9.20;99.90;;;;;;5033072;28;20292;-81
2021/08/20 04:10:42;;;;;;;0.60;0.60;;;9.10;99.90;;;;;;5033142;28;20205;-81
2021/08/20 04:13:08;;;;;;;0.60;0.60;;;9.10;99.90;;;;;;5034273;28;20197;-82
2021/08/20 04:15:34;;;;;;;0.60;0.60;;;9.10;99.90;;;;;;5034717;28;20198;-81
2021/08/20 04:18:00;;;;;;;0.70;0.70;;;9.10;99.90;;;;;;5037705;28;20237;-80
2021/08/20 04:20:26;;;;;;;0.63;0.63;;;9.20;99.90;;;;;;5036124;28;20235;-82
2021/08/20 04:22:53;;;;;;;0.80;0.80;;;9.20;99.90;;;;;;5036308;28;20666;-81
2021/08/20 04:25:19;;;;;;;0.68;0.68;;;9.20;99.90;;;;;;5035954;28;20284;-82
2021/08/20 04:27:45;;;;;;;1.17;1.13;;;9.30;99.90;;;;;;5035388;28;20399;-81
2021/08/20 04:30:11;;;;;;;10.25;2.58;;;9.30;99.90;;;;;;5037228;28;20229;-81
2021/08/20 04:32:37;;;;;;;0.60;0.60;;;9.40;99.90;;;;;;5037266;28;20208;-82
2021/08/20 04:35:03;;;;;;;0.60;0.60;;;9.40;99.90;;;;;;5055196;28;20724;-82
2021/08/20 04:37:29;;;;;;;0.60;0.60;;;9.50;99.90;;;;;;5037206;28;20213;-81
2021/08/20 04:39:55;;;;;;;0.60;0.60;;;9.70;99.90;;;;;;5037311;28;20197;-82
2021/08/20 04:42:20;;;;;;;0.60;0.60;;;9.70;99.90;;;;;;5037211;28;20197;-81
2021/08/20 04:44:46;;;;;;;0.60;0.60;;;9.80;99.90;;;;;;5036979;28;20197;-82
2021/08/20 04:47:12;;;;;;;1.02;0.85;;;9.90;99.90;;;;;;5036987;28;20208;-82
2021/08/20 04:49:37;;;;;;;0.60;0.60;;;10.00;99.90;;;;;;5036804;28;20208;-82
2021/08/20 04:52:04;;;;;;;0.80;0.80;;;10.10;99.90;;;;;;5054746;28;20247;-82
2021/08/20 04:54:29;;;;;;;0.60;0.60;;;10.20;99.90;;;;;;5036597;28;20255;-82
2021/08/20 04:56:55;;;;;;;0.60;0.60;;;10.10;99.90;;;;;;5036844;28;20201;-82
2021/08/20 04:59:21;;;;;;;0.77;0.77;;;10.10;99.90;;;;;;5036497;28;20209;-82
2021/08/20 05:01:47;;;;;;;0.65;0.65;;;10.10;99.90;;;;;;5035227;28;20206;-83
2021/08/20 05:04:13;;;;;;;0.70;0.70;;;10.10;99.90;;;;;;5053419;28;20240;-83
2021/08/20 05:06:39;;;;;;;0.60;0.60;;;10.20;99.90;;;;;;5054164;28;20224;-81
2021/08/20 05:09:07;;;;;;;0.60;0.60;;;10.30;99.90;;;;;;5037925;28;20236;-82
2021/08/20 05:11:36;;;;;;;0.60;0.60;;;10.40;99.90;;;;;;5054695;28;20193;-82
2021/08/20 05:14:02;;;;;;;0.52;0.52;;;10.60;99.90;;;;;;5054525;28;20216;-82
2021/08/20 05:16:27;;;;;;;0.60;0.60;;;10.70;99.90;;;;;;5036306;28;20657;-82
2021/08/20 05:18:55;;;;;;;1.02;0.93;;;10.80;99.90;;;;;;5035334;28;20214;-82
2021/08/20 05:21:22;;;;;;;0.60;0.60;;;10.90;99.90;;;;;;5054027;28;20342;-82
2021/08/20 05:23:48;;;;;;;0.60;0.60;;;11.00;99.90;;;;;;5035081;28;20201;-82
2021/08/20 05:26:14;;;;;;;1.20;0.77;;;11.10;99.90;;;;;;5035374;28;20295;-82
2021/08/20 05:28:40;;;;;;;0.60;0.60;;;11.20;99.90;;;;;;5033743;28;20680;-83
2021/08/20 05:31:06;;;;;;;0.70;0.70;;;11.30;99.90;;;;;;5036417;28;20217;-82
2021/08/20 05:33:32;;;;;;;0.98;0.98;;;11.40;99.90;;;;;;5033038;28;20255;-83
2021/08/20 05:35:57;;;;;;;0.63;0.63;;;11.60;99.90;;;;;;5035971;28;20690;-82
2021/08/20 05:38:23;;;;;;;0.60;0.60;;;11.60;99.90;;;;;;5034697;28;20212;-83
2021/08/20 05:40:49;;;;;;;0.60;0.60;;;11.70;99.90;;;;;;5053881;28;20201;-82
2021/08/20 05:43:14;;;;;;;0.82;0.82;;;11.90;99.90;;;;;;5035030;28;20201;-82
2021/08/20 05:45:40;;;;;;;3.13;1.33;;;11.90;99.90;;;;;;5031431;28;20209;-82
2021/08/20 05:48:07;;;;;;;0.50;0.50;;;12.00;99.90;;;;;;5031486;28;20205;-82
2021/08/20 05:50:34;;;;;;;0.52;0.52;;;12.10;99.90;;;;;;5034662;28;20288;-82
2021/08/20 05:53:00;;;;;;;0.60;0.60;;;12.20;99.90;;;;;;5035858;28;20209;-83
2021/08/20 05:55:26;;;;;;;0.60;0.60;;;12.20;99.90;;;;;;5052226;28;20567;-83
2021/08/20 05:57:52;;;;;;;0.80;0.80;;;12.30;99.90;;;;;;5035722;28;20235;-83
2021/08/20 06:00:18;;;;;;;0.77;0.77;;;12.30;99.90;;;;;;5053835;28;20198;-82
2021/08/20 06:02:44;;;;;;;0.50;0.50;;;12.30;99.90;;;;;;5035372;28;20210;-83
2021/08/20 06:05:10;;;;;;;0.60;0.60;;;12.30;99.90;;;;;;5030514;28;20202;-83
2021/08/20 06:07:36;;;;;;;0.50;0.50;;;12.40;99.90;;;;;;5028130;28;20206;-82
2021/08/20 06:10:06;;;;;;;0.50;0.50;;;12.50;99.90;;;;;;5045897;28;20297;-82
2021/08/20 06:12:31;;;;;;;0.70;0.70;;;12.70;99.90;;;;;;5053348;28;20247;-83
2021/08/20 06:14:58;;;;;;;0.50;0.50;;;12.70;99.90;;;;;;5035212;28;20236;-82
2021/08/20 06:17:24;;;;;;;0.50;0.50;;;12.80;99.90;;;;;;5034237;28;20751;-83
2021/08/20 06:19:49;;;;;;;0.50;0.50;;;12.80;99.90;;;;;;5051897;28;20312;-83
2021/08/20 06:22:15;;;;;;;0.50;0.50;;;12.80;99.90;;;;;;5035097;28;20250;-83
2021/08/20 06:24:41;;;;;;;0.50;0.50;;;12.80;99.90;;;;;;5053146;28;20211;-83
2021/08/20 06:27:07;;;;;;;0.60;0.60;;;12.80;99.90;;;;;;5053152;28;20786;-83
2021/08/20 06:29:33;;;;;;;0.50;0.50;;;12.80;99.90;;;;;;5019651;28;20234;-83
2021/08/20 06:31:59;;;;;;;0.70;0.70;;;13.00;99.90;;;;;;5027163;28;20202;-83
2021/08/20 06:34:25;;;;;;;0.47;0.47;;;13.00;99.90;;;;;;5033712;28;20564;-83
2021/08/20 06:36:50;;;;;;;0.57;0.57;;;13.00;99.90;;;;;;5029634;28;20545;-84
2021/08/20 06:39:17;;;;;;;0.50;0.50;;;12.90;99.90;;;;;;5029892;28;20396;-83
2021/08/20 06:41:42;;;;;;;0.50;0.50;;;13.00;99.90;;;;;;5039126;28;20251;-83
2021/08/20 06:44:08;;;;;;;0.40;0.40;;;13.00;99.90;;;;;;5052799;28;20193;-83
2021/08/20 06:46:35;;;;;;;0.50;0.50;;;12.90;99.90;;;;;;5033455;28;20194;-84
2021/08/20 06:49:02;;;;;;;0.68;0.68;;;12.80;99.90;;;;;;5053006;28;20548;-83
2021/08/20 06:51:27;;;;;;;0.50;0.50;;;12.80;99.90;;;;;;5052805;28;20236;-84
2021/08/20 06:53:53;;;;;;;0.93;0.93;;;12.90;99.90;;;;;;5032872;28;20248;-82
2021/08/20 06:56:19;;;;;;;0.60;0.60;;;12.80;99.90;;;;;;5033274;28;20217;-84
2021/08/20 06:58:45;;;;;;;0.50;0.50;;;13.00;99.90;;;;;;5033537;28;20574;-85
2021/08/20 07:01:11;;;;;;;0.70;0.70;;;13.30;99.90;;;;;;5060347;28;20240;-84
2021/08/20 07:03:37;;;;;;;0.57;0.57;;;13.40;99.90;;;;;;5044722;28;20209;-84
2021/08/20 07:06:02;;;;;;;0.45;0.45;;;13.70;99.90;;;;;;5033280;28;20223;-83
2021/08/20 07:08:30;;;;;;;0.50;0.50;;;14.10;99.90;;;;;;5034055;28;20269;-84
2021/08/20 07:10:56;;;;;;;0.47;0.47;;;14.50;99.90;;;;;;5034596;28;20201;-84
2021/08/20 07:13:22;;;;;;;0.70;0.70;;;14.70;99.90;;;;;;5034805;28;20205;-84
2021/08/20 07:15:47;;;;;;;0.40;0.40;;;14.90;99.90;;;;;;5018257;28;20565;-84
2021/08/20 07:18:15;;;;;;;0.40;0.40;;;15.10;99.90;;;;;;5021157;28;20236;-83
2021/08/20 07:20:41;;;;;;;0.50;0.50;;;15.20;99.90;;;;;;5036093;28;20205;-85
2021/08/20 07:23:10;;;;;;;0.40;0.40;;;15.40;99.90;;;;;;5035989;28;20201;-87
2021/08/20 07:25:36;;;;;;;0.50;0.50;;;15.70;99.90;;;;;;5042688;28;20204;-84
2021/08/20 07:28:01;;;;;;;0.40;0.40;;;15.80;99.90;;;;;;5060398;28;20201;-85
2021/08/20 07:30:27;;;;;;;0.32;0.32;;;15.70;99.90;;;;;;5035218;28;20635;-85
2021/08/20 07:32:57;;;;;;;0.40;0.40;;;15.70;99.90;;;;;;5033661;28;20562;-85
2021/08/20 07:35:26;;;;;;;0.40;0.40;;;15.70;99.90;;;;;;5051368;28;20779;-85
2021/08/20 07:37:59;;;;;;;0.40;0.40;;;15.90;99.90;;;;;;5034180;28;20706;-85
2021/08/20 07:40:33;;;;;;;0.50;0.50;;;16.00;99.90;;;;;;5018800;28;20224;-88
2021/08/20 07:43:05;;;;;;;0.30;0.30;;;16.20;99.90;;;;;;5049982;28;20188;-88
2021/08/20 07:45:30;;;;;;;0.30;0.30;;;16.50;99.90;;;;;;5034502;28;20554;-87
2021/08/20 07:47:59;;;;;;;0.40;0.40;;;16.60;99.90;;;;;;5052655;28;20259;-86
2021/08/20 07:50:25;;;;;;;0.40;0.40;;;16.50;99.90;;;;;;5051916;28;20236;-87
2021/08/20 07:52:50;;;;;;;0.40;0.40;;;16.50;99.90;;;;;;5037355;28;20263;-86
2021/08/20 07:55:17;;;;;;;0.40;0.40;;;16.50;99.90;;;;;;5040641;28;20205;-87
2021/08/20 07:58:32;;;;;;;0.40;0.40;;;16.80;99.90;;;;;;5037133;28;20347;-85
2021/08/20 08:01:05;;;;;;;0.40;0.40;;;17.20;99.90;;;;;;5055435;28;20205;-84
2021/08/20 08:03:34;;;;;;;0.43;0.43;;;17.40;99.90;;;;;;5026697;28;20212;-86
2021/08/20 08:10:32;;;;;;;0.32;0.32;;;17.60;99.90;;;;;;4977662;28;20212;-84
2021/08/20 08:13:03;;;;;;;0.30;0.30;;;18.60;99.90;;;;;;4963970;28;20212;-85
2021/08/20 08:15:30;;;;;;;0.30;0.30;;;19.00;99.90;;;;;;4975103;28;20201;-86
2021/08/20 08:17:55;;;;;;;0.20;0.20;;;19.00;99.90;;;;;;4975032;28;20259;-86
2021/08/20 08:20:21;;;;;;;1.05;0.40;;;18.80;99.90;;;;;;4975776;28;20211;-86
2021/08/20 08:22:54;;;;;;;0.30;0.30;;;18.90;99.90;;;;;;4959215;28;20200;-85
2021/08/20 08:25:30;;;;;;;0.30;0.30;;;19.10;99.90;;;;;;4975499;28;20208;-86
2021/08/20 08:28:00;;;;;;;0.30;0.30;;;19.10;99.90;;;;;;4984257;28;20220;-86
2021/08/20 08:30:32;;;;;;;0.30;0.30;;;18.90;99.90;;;;;;4975446;28;20232;-85
2021/08/20 08:32:58;;;;;;;0.30;0.30;;;18.60;99.90;;;;;;4974435;28;20216;-84
2021/08/20 08:35:30;;;;;;;0.30;0.30;;;18.70;99.90;;;;;;4963495;28;20789;-85
2021/08/20 08:38:14;;;;;;;0.30;0.30;;;18.80;99.90;;;;;;4970180;28;20219;-85
2021/08/20 08:40:44;;;;;;;0.30;0.30;;;19.10;99.90;;;;;;4973854;28;20228;-84
2021/08/20 08:43:15;;;;;;;0.22;0.22;;;19.10;99.90;;;;;;4973432;28;20673;-83
2021/08/20 08:45:42;;;;;;;0.30;0.30;;;19.30;99.90;;;;;;4957917;28;20655;-84
2021/08/20 08:48:13;;;;;;;0.20;0.20;;;19.80;99.90;;;;;;4975915;28;20215;-84
2021/08/20 08:50:44;;;;;;;0.20;0.20;;;19.80;99.90;;;;;;5034521;28;20237;-83
2021/08/20 08:53:10;;;;;;;2.50;1.55;;;19.60;99.90;;;;;;5036143;28;20216;-84
2021/08/20 08:55:36;;;;;;;0.20;0.20;;;19.70;99.90;;;;;;5035602;28;20198;-84
2021/08/20 08:58:11;;;;;;;0.38;0.38;;;20.00;99.90;;;;;;5037539;28;20262;-84
2021/08/20 09:00:38;;;;;;;0.20;0.20;;;20.10;99.90;;;;;;5052830;28;20644;-84
2021/08/20 09:03:06;;;;;;;0.50;0.50;;;20.30;99.90;;;;;;5037830;28;20189;-83
2021/08/20 09:05:46;;;;;;;0.30;0.30;;;20.40;99.90;;;;;;5035512;28;20652;-85
2021/08/20 09:08:17;;;;;;;0.20;0.20;;;20.80;99.90;;;;;;5035975;28;20658;-82
2021/08/20 09:10:59;;;;;;;0.43;0.40;;;20.70;99.90;;;;;;5025155;28;20357;-83
2021/08/20 09:13:26;;;;;;;0.20;0.20;;;20.70;99.90;;;;;;5033620;28;20213;-84
2021/08/20 09:16:32;;;;;;;0.20;0.20;;;20.50;99.90;;;;;;5034104;28;20743;-84
2021/08/20 09:19:28;;;;;;;0.20;0.20;;;20.80;99.90;;;;;;4997110;28;20235;-84
2021/08/20 09:21:58;;;;;;;0.20;0.20;;;20.60;99.90;;;;;;5024294;28;20267;-84
2021/08/20 09:24:37;;;;;;;0.20;0.20;;;20.80;99.90;;;;;;5019828;28;20234;-83
2021/08/20 09:27:18;;;;;;;0.20;0.20;;;20.60;99.90;;;;;;5034765;28;20709;-84
2021/08/20 09:29:54;;;;;;;0.20;0.20;;;20.70;99.90;;;;;;5035392;28;20229;-84
2021/08/20 09:32:21;;;;;;;0.20;0.20;;;20.80;99.90;;;;;;5052580;28;20213;-85
2021/08/20 09:34:48;;;;;;;0.20;0.20;;;20.90;99.90;;;;;;5034749;28;20209;-84
2021/08/20 09:37:14;;;;;;;0.30;0.30;;;21.30;99.90;;;;;;5042853;28;20194;-84
2021/08/20 09:39:47;;;;;;;0.20;0.20;;;21.80;99.90;;;;;;5025769;28;20271;-84
2021/08/20 09:42:15;;;;;;;0.20;0.20;;;22.00;99.90;;;;;;5034938;28;20225;-83
2021/08/20 09:44:42;;;;;;;0.25;0.25;;;22.00;99.90;;;;;;5035012;28;20197;-84
2021/08/20 09:47:07;;;;;;;0.40;0.40;;;22.20;99.90;;;;;;5035962;28;20206;-84
2021/08/20 09:50:06;;;;;;;0.20;0.20;;;22.40;99.90;;;;;;5035928;28;20275;-84
2021/08/20 09:52:31;;;;;;;0.10;0.10;;;22.40;99.90;;;;;;5018601;28;20209;-84
2021/08/20 09:54:57;;;;;;;0.20;0.20;;;22.50;99.90;;;;;;5050976;28;20594;-84
2021/08/20 09:57:27;;;;;;;0.20;0.20;;;22.80;99.90;;;;;;5030582;28;20212;-84
2021/08/20 09:59:57;;;;;;;0.20;0.20;;;22.50;99.90;;;;;;5017294;28;20198;-84
2021/08/20 10:02:27;;;;;;;0.25;0.20;;;22.60;99.90;;;;;;5052918;28;20612;-85
2021/08/20 10:04:55;;;;;;;0.28;0.28;;;22.50;99.90;;;;;;5035695;28;20197;-84
2021/08/20 10:07:22;;;;;;;0.20;0.20;;;22.40;99.90;;;;;;5032226;28;20201;-85
2021/08/20 10:09:52;;;;;;;0.20;0.20;;;22.60;99.90;;;;;;5034318;28;20205;-84
2021/08/20 10:12:23;;;;;;;0.20;0.20;;;22.70;99.90;;;;;;5034520;28;20245;-84
2021/08/20 10:14:50;;;;;;;0.20;0.20;;;22.80;99.90;;;;;;5033199;28;20243;-84
2021/08/20 10:17:16;;;;;;;0.20;0.20;;;22.90;99.90;;;;;;5027289;28;20198;-86
2021/08/20 10:19:49;;;;;;;0.20;0.20;;;22.70;99.90;;;;;;5023330;28;20205;-85
2021/08/20 10:22:17;;;;;;;0.20;0.20;;;22.30;99.90;;;;;;5033345;28;20847;-84
2021/08/20 10:24:43;;;;;;;0.20;0.20;;;22.10;99.90;;;;;;5051567;28;20212;-85
2021/08/20 10:27:10;;;;;;;0.20;0.20;;;22.40;99.90;;;;;;5053564;28;20698;-85
2021/08/20 10:29:47;;;;;;;0.20;0.20;;;22.50;99.90;;;;;;5034821;28;20233;-83
2021/08/20 10:32:14;;;;;;;0.20;0.20;;;21.90;99.90;;;;;;5034853;28;20243;-83
2021/08/20 10:34:41;;;;;;;0.20;0.20;;;22.00;99.90;;;;;;5017808;28;20233;-84
2021/08/20 10:37:25;;;;;;;0.20;0.20;;;22.10;98.70;;;;;;5034728;28;20581;-84
2021/08/20 10:39:53;;;;;;;0.20;0.20;;;22.00;99.70;;;;;;5033613;28;20544;-84
2021/08/20 10:42:40;;;;;;;0.20;0.20;;;21.80;99.60;;;;;;5033828;28;20240;-84
2021/08/20 10:45:09;;;;;;;0.20;0.20;;;21.70;99.90;;;;;;5052874;28;20569;-84
2021/08/20 10:47:35;;;;;;;0.13;0.13;;;22.30;97.80;;;;;;5033896;28;20616;-83
2021/08/20 10:50:20;;;;;;;0.20;0.20;;;22.50;98.30;;;;;;5033519;28;20197;-84
2021/08/20 10:52:48;;;;;;;3.55;0.25;;;22.70;93.90;;;;;;5035285;28;20586;-83
2021/08/20 10:55:24;;;;;;;0.20;0.20;;;22.60;93.90;;;;;;5050903;28;20698;-84
2021/08/20 10:58:02;;;;;;;0.20;0.20;;;22.80;95.30;;;;;;5051212;28;20292;-83
2021/08/20 11:00:30;;;;;;;0.20;0.20;;;23.30;96.50;;;;;;5046136;28;20224;-85
2021/08/20 11:02:58;;;;;;;0.20;0.20;;;23.50;92.40;;;;;;5033823;28;20733;-84
2021/08/20 11:05:38;;;;;;;0.20;0.20;;;22.70;93.00;;;;;;5050218;28;20198;-84
2021/08/20 11:08:27;;;;;;;0.20;0.20;;;22.50;98.00;;;;;;5051115;28;20562;-84
2021/08/20 11:10:54;;;;;;;0.20;0.20;;;22.20;97.00;;;;;;5027427;28;20250;-84
2021/08/20 11:13:20;;;;;;;0.20;0.20;;;21.90;96.30;;;;;;5021703;28;20210;-85
2021/08/20 11:15:47;;;;;;;0.20;0.20;;;22.10;97.30;;;;;;5033419;28;20218;-85
2021/08/20 11:18:13;;;;;;;0.20;0.20;;;22.00;95.10;;;;;;5033150;28;20205;-85
2021/08/20 11:20:44;;;;;;;0.20;0.20;;;21.90;93.80;;;;;;5033701;28;20292;-85
2021/08/20 11:23:13;;;;;;;0.20;0.20;;;21.70;96.10;;;;;;5033238;28;20617;-85
2021/08/20 11:25:50;;;;;;;0.20;0.20;;;21.30;94.50;;;;;;5034591;28;20201;-85
2021/08/20 11:28:39;;;;;;;0.20;0.20;;;21.10;96.20;;;;;;5055875;28;20204;-84
2021/08/20 11:31:11;;;;;;;0.20;0.20;;;20.90;93.60;;;;;;5054360;28;20225;-83
2021/08/20 11:33:45;;;;;;;0.30;0.30;;;21.30;97.50;;;;;;5038459;28;20686;-83
2021/08/20 11:36:22;;;;;;;0.20;0.20;;;22.10;93.50;;;;;;5038440;28;20216;-84
2021/08/20 11:38:50;;;;;;;0.38;0.38;;;22.60;93.30;;;;;;5056295;28;20219;-84
2021/08/20 11:41:23;;;;;;;0.20;0.20;;;23.30;94.00;;;;;;5038393;28;20267;-84
2021/08/20 11:43:53;;;;;;;0.17;0.17;;;23.60;95.10;;;;;;5037016;28;20201;-83
2021/08/20 11:46:20;;;;;;;0.20;0.20;;;23.10;95.10;;;;;;5054587;28;20657;-84
2021/08/20 11:48:57;;;;;;;0.20;0.20;;;23.30;97.40;;;;;;5056024;28;20205;-84
2021/08/20 11:51:28;;;;;;;0.20;0.20;;;23.30;94.10;;;;;;5037841;28;20201;-84
2021/08/20 11:53:59;;;;;;;0.20;0.20;;;23.30;93.60;;;;;;5038101;28;20616;-84
2021/08/20 11:56:26;;;;;;;0.20;0.20;;;23.30;92.70;;;;;;5055690;28;20197;-84
2021/08/20 11:58:52;;;;;;;0.20;0.20;;;23.50;95.00;;;;;;5036465;28;20213;-84
2021/08/20 12:01:24;;;;;;;0.20;0.20;;;23.90;93.90;;;;;;5036526;28;20209;-84
2021/08/20 12:03:52;;;;;;;0.20;0.20;;;24.00;92.80;;;;;;5054152;28;20555;-84
2021/08/20 12:06:19;;;;;;;0.20;0.20;;;24.00;93.30;;;;;;5037776;28;20201;-85
2021/08/20 12:08:46;;;;;;;0.20;0.20;;;23.50;90.80;;;;;;5036917;28;20284;-84
2021/08/20 12:11:12;;;;;;;0.10;0.10;;;23.50;92.90;;;;;;5038034;28;20217;-84
2021/08/20 12:13:46;;;;;;;0.20;0.20;;;22.90;91.80;;;;;;5032584;28;20233;-84
2021/08/20 12:16:36;;;;;;;0.20;0.20;;;22.00;95.80;;;;;;5050572;28;20579;-84
2021/08/20 12:19:26;;;;;;;0.20;0.20;;;21.00;95.40;;;;;;5036185;28;20578;-84
2021/08/20 12:22:05;;;;;;;0.20;0.20;;;20.90;96.90;;;;;;5036369;28;20255;-85
2021/08/20 12:24:43;;;;;;;0.20;0.20;;;21.90;97.30;;;;;;5036028;28;20205;-84
2021/08/20 12:27:13;;;;;;;0.20;0.20;;;23.00;93.90;;;;;;5038025;28;20205;-85
2021/08/20 12:29:39;;;;;;;0.20;0.20;;;23.20;93.70;;;;;;5037157;28;20375;-83
2021/08/20 12:32:05;;;;;;;0.20;0.20;;;22.90;90.90;;;;;;5054296;28;20616;-84
2021/08/20 12:34:34;;;;;;;0.20;0.20;;;21.80;92.60;;;;;;5036048;28;20209;-83
2021/08/20 12:37:06;;;;;;;0.20;0.20;;;21.00;92.80;;;;;;5054756;28;20208;-83
2021/08/20 12:39:40;;;;;;;0.20;0.20;;;20.80;94.80;;;;;;5037434;28;20206;-83
2021/08/20 12:42:26;;;;;;;0.20;0.20;;;20.90;94.50;;;;;;5054971;28;20640;-84
2021/08/20 12:45:16;;;;;;;0.20;0.20;;;21.70;95.60;;;;;;5035820;28;20205;-84
2021/08/20 12:47:44;;;;;;;0.70;0.38;;;22.50;91.60;;;;;;5053864;28;20209;-83
2021/08/20 12:50:15;;;;;;;0.20;0.20;;;23.00;89.00;;;;;;5036415;28;20541;-84
2021/08/20 12:52:42;;;;;;;0.20;0.20;;;23.10;90.10;;;;;;5035914;28;20243;-84
2021/08/20 12:55:28;;;;;;;0.20;0.20;;;23.30;85.90;;;;;;5036005;28;20189;-83
2021/08/20 12:57:55;;;;;;;0.10;0.10;;;23.60;87.90;;;;;;5019526;28;20567;-85
2021/08/20 13:00:22;;;;;;;0.20;0.20;;;23.90;88.10;;;;;;5036953;28;20255;-85
2021/08/20 13:02:48;;;;;;;0.20;0.20;;;23.90;81.30;;;;;;5034647;28;20537;-85